createdAt,value
2023-02-09T00:01:04.807Z,7.70
2023-02-09T00:03:32.358Z,7.97
2023-02-09T00:06:00.637Z,11.80
2023-02-09T00:08:28.231Z,5.47
2023-02-09T00:10:55.654Z,8.40
2023-02-09T00:13:23.872Z,7.17
2023-02-09T00:15:56.864Z,6.10
2023-02-09T00:18:26.456Z,6.67
2023-02-09T00:21:00.456Z,5.67
2023-02-09T00:23:29.230Z,4.90
2023-02-09T00:25:59.628Z,7.00
2023-02-09T00:28:27.133Z,7.20
2023-02-09T00:30:54.645Z,6.43
2023-02-09T00:33:21.943Z,6.00
2023-02-09T00:35:49.324Z,5.83
2023-02-09T00:38:16.543Z,7.33
2023-02-09T00:40:43.878Z,7.27
2023-02-09T00:43:11.896Z,7.67
2023-02-09T00:45:39.009Z,8.77
2023-02-09T00:48:06.389Z,8.60
2023-02-09T00:50:33.434Z,6.47
2023-02-09T00:53:00.391Z,7.37
2023-02-09T00:55:27.379Z,6.33
2023-02-09T00:57:54.399Z,9.13
2023-02-09T01:00:21.880Z,9.37
2023-02-09T01:02:48.852Z,7.70
2023-02-09T01:05:16.127Z,7.73
2023-02-09T01:07:44.747Z,6.47
2023-02-09T01:10:11.647Z,10.10
2023-02-09T01:12:41.022Z,9.80
2023-02-09T01:15:13.747Z,7.23
2023-02-09T01:17:43.691Z,7.43
2023-02-09T01:20:13.378Z,8.23
2023-02-09T01:22:40.881Z,7.93
2023-02-09T01:25:09.023Z,7.83
2023-02-09T01:27:36.797Z,8.23
2023-02-09T01:30:04.425Z,10.33
2023-02-09T01:32:32.162Z,6.90
2023-02-09T01:34:59.159Z,6.40
2023-02-09T01:37:26.178Z,7.43
2023-02-09T01:39:53.084Z,8.90
2023-02-09T01:42:21.040Z,6.53
2023-02-09T01:44:47.855Z,6.80
2023-02-09T01:47:16.727Z,7.57
2023-02-09T01:49:50.153Z,8.20
2023-02-09T01:52:26.415Z,7.20
2023-02-09T01:55:02.336Z,7.33
2023-02-09T01:57:34.396Z,8.60
2023-02-09T02:00:08.227Z,6.63
2023-02-09T02:02:43.143Z,7.03
2023-02-09T02:05:10.897Z,6.53
2023-02-09T02:07:37.851Z,8.20
2023-02-09T02:10:05.740Z,7.03
2023-02-09T02:12:33.176Z,6.93
2023-02-09T02:15:00.297Z,6.67
2023-02-09T02:17:59.285Z,5.77
2023-02-09T02:20:44.735Z,6.63
2023-02-09T02:23:36.948Z,7.40
2023-02-09T02:26:07.308Z,8.10
2023-02-09T02:28:58.861Z,9.13
2023-02-09T02:31:47.663Z,6.93
2023-02-09T02:34:31.792Z,8.93
2023-02-09T02:37:40.670Z,7.23
2023-02-09T02:40:22.563Z,7.67
2023-02-09T02:43:08.751Z,5.63
2023-02-09T02:45:44.190Z,7.70
2023-02-09T02:48:36.081Z,5.13
2023-02-09T02:51:08.096Z,6.67
2023-02-09T02:53:37.687Z,7.57
2023-02-09T02:56:11.024Z,7.27
2023-02-09T02:58:41.587Z,6.40
2023-02-09T03:01:14.040Z,6.93
2023-02-09T03:03:43.418Z,8.33
2023-02-09T03:06:12.226Z,6.53
2023-02-09T03:08:52.796Z,7.67
2023-02-09T03:11:21.985Z,9.27
2023-02-09T03:14:06.936Z,8.03
2023-02-09T03:16:47.500Z,7.07
2023-02-09T03:19:14.755Z,5.83
2023-02-09T03:22:12.269Z,6.03
2023-02-09T03:25:03.526Z,6.20
2023-02-09T03:27:41.595Z,9.43
2023-02-09T03:30:11.931Z,6.60
2023-02-09T03:32:44.513Z,7.50
2023-02-09T03:35:14.762Z,8.80
2023-02-09T03:37:41.759Z,7.97
2023-02-09T03:40:09.459Z,7.70
2023-02-09T03:42:36.435Z,6.43
2023-02-09T03:45:03.480Z,6.60
2023-02-09T03:47:30.875Z,7.13
2023-02-09T03:49:58.546Z,4.70
2023-02-09T03:52:25.535Z,7.50
2023-02-09T03:54:52.417Z,7.17
2023-02-09T03:57:19.375Z,6.20
2023-02-09T03:59:46.327Z,7.53
2023-02-09T04:02:13.534Z,6.97
2023-02-09T04:04:40.448Z,6.80
2023-02-09T04:07:07.499Z,8.27
2023-02-09T04:09:34.946Z,6.13
2023-02-09T04:12:02.038Z,10.00
2023-02-09T04:14:29.016Z,7.73
2023-02-09T04:16:56.018Z,6.47
2023-02-09T04:19:23.095Z,6.13
2023-02-09T04:21:50.127Z,6.30
2023-02-09T04:24:26.267Z,8.37
2023-02-09T04:26:53.444Z,6.57
2023-02-09T04:29:20.679Z,7.67
2023-02-09T04:31:47.780Z,7.27
2023-02-09T04:34:14.753Z,8.10
2023-02-09T04:36:41.754Z,7.97
2023-02-09T04:39:08.700Z,5.93
2023-02-09T04:41:35.756Z,7.23
2023-02-09T04:44:02.640Z,6.87
2023-02-09T04:46:30.112Z,6.60
2023-02-09T04:48:57.314Z,9.17
2023-02-09T04:51:24.233Z,8.23
2023-02-09T04:53:51.235Z,7.63
2023-02-09T04:56:18.513Z,8.63
2023-02-09T04:59:04.280Z,7.30
2023-02-09T05:01:31.495Z,7.00
2023-02-09T05:03:58.626Z,9.87
2023-02-09T05:06:25.685Z,6.37
2023-02-09T05:08:52.606Z,7.77
2023-02-09T05:11:19.563Z,5.90
2023-02-09T05:13:46.603Z,8.23
2023-02-09T05:16:16.011Z,9.13
2023-02-09T05:18:43.981Z,10.17
2023-02-09T05:21:11.353Z,6.47
2023-02-09T05:23:38.330Z,8.50
2023-02-09T05:26:05.409Z,6.80
2023-02-09T05:28:32.461Z,8.17
2023-02-09T05:30:59.480Z,7.20
2023-02-09T05:33:26.511Z,8.23
2023-02-09T05:35:55.896Z,13.57
2023-02-09T05:38:23.284Z,7.73
2023-02-09T05:40:50.773Z,7.47
2023-02-09T05:43:19.035Z,7.23
2023-02-09T05:45:46.707Z,7.23
2023-02-09T05:48:13.680Z,9.50
2023-02-09T05:50:40.726Z,8.70
2023-02-09T05:53:08.640Z,5.60
2023-02-09T05:55:35.591Z,8.40
2023-02-09T05:58:02.746Z,7.13
2023-02-09T06:00:29.975Z,8.47
2023-02-09T06:02:57.301Z,6.60
2023-02-09T06:05:25.101Z,6.47
2023-02-09T06:07:52.200Z,6.33
2023-02-09T06:10:19.407Z,9.23
2023-02-09T06:12:46.726Z,7.67
2023-02-09T06:15:16.164Z,9.73
2023-02-09T06:17:43.548Z,7.20
2023-02-09T06:20:12.627Z,8.30
2023-02-09T06:22:39.664Z,6.93
2023-02-09T06:25:06.806Z,7.07
2023-02-09T06:27:33.927Z,7.07
2023-02-09T06:30:01.200Z,11.17
2023-02-09T06:32:28.310Z,8.37
2023-02-09T06:34:55.463Z,7.17
2023-02-09T06:37:22.610Z,9.20
2023-02-09T06:39:49.578Z,7.87
2023-02-09T06:42:16.510Z,10.17
2023-02-09T06:44:43.585Z,8.63
2023-02-09T06:47:10.607Z,8.23
2023-02-09T06:49:37.538Z,12.80
2023-02-09T06:52:05.407Z,7.90
2023-02-09T06:54:32.532Z,8.10
2023-02-09T06:56:59.812Z,10.93
2023-02-09T06:59:26.763Z,8.00
2023-02-09T07:01:55.102Z,7.20
2023-02-09T07:04:22.503Z,10.37
2023-02-09T07:06:49.409Z,7.43
2023-02-09T07:09:16.597Z,7.23
2023-02-09T07:11:43.926Z,8.07
2023-02-09T07:14:11.320Z,11.40
2023-02-09T07:16:38.450Z,9.10
2023-02-09T07:19:05.393Z,8.53
2023-02-09T07:21:32.534Z,7.83
2023-02-09T07:23:59.611Z,8.20
2023-02-09T07:26:26.676Z,8.20
2023-02-09T07:28:53.961Z,6.43
2023-02-09T07:31:21.067Z,8.17
2023-02-09T07:33:48.095Z,10.53
2023-02-09T07:36:18.320Z,9.43
2023-02-09T07:38:46.179Z,9.13
2023-02-09T07:41:19.942Z,9.43
2023-02-09T07:43:47.861Z,8.13
2023-02-09T07:46:16.952Z,9.07
2023-02-09T07:48:44.454Z,6.87
2023-02-09T07:51:25.727Z,8.90
2023-02-09T07:53:53.912Z,6.27
2023-02-09T07:56:22.300Z,8.63
2023-02-09T07:58:49.810Z,9.80
2023-02-09T08:01:17.895Z,8.80
2023-02-09T08:03:47.170Z,7.87
2023-02-09T08:06:24.255Z,9.50
2023-02-09T08:08:53.565Z,10.67
2023-02-09T08:11:32.462Z,8.93
2023-02-09T08:14:05.166Z,7.43
2023-02-09T08:16:34.850Z,8.63
2023-02-09T08:19:19.575Z,10.63
2023-02-09T08:21:49.073Z,10.03
2023-02-09T08:24:18.513Z,8.60
2023-02-09T08:26:45.840Z,8.73
2023-02-09T08:29:13.598Z,8.30
2023-02-09T08:31:40.860Z,9.63
2023-02-09T08:34:08.170Z,9.43
2023-02-09T08:36:38.097Z,8.07
2023-02-09T08:39:06.817Z,10.60
2023-02-09T08:41:35.495Z,8.20
2023-02-09T08:44:03.201Z,7.23
2023-02-09T08:46:30.406Z,8.23
2023-02-09T08:48:57.403Z,9.03
2023-02-09T08:51:24.630Z,9.37
2023-02-09T08:53:52.765Z,9.37
2023-02-09T08:56:21.358Z,7.63
2023-02-09T08:58:49.299Z,6.90
2023-02-09T09:01:16.448Z,7.20
2023-02-09T09:03:43.534Z,8.63
2023-02-09T09:06:12.611Z,8.77
2023-02-09T09:08:40.628Z,7.43
2023-02-09T09:11:13.266Z,8.97
2023-02-09T09:13:43.726Z,8.50
2023-02-09T09:16:19.952Z,7.80
2023-02-09T09:18:47.291Z,7.77
2023-02-09T09:21:16.180Z,9.97
2023-02-09T09:23:44.973Z,7.30
2023-02-09T09:26:12.183Z,10.53
2023-02-09T09:28:39.102Z,8.77
2023-02-09T09:31:15.607Z,9.20
2023-02-09T09:33:43.003Z,9.60
2023-02-09T09:36:12.141Z,11.40
2023-02-09T09:38:40.040Z,10.63
2023-02-09T09:41:25.815Z,9.00
2023-02-09T09:43:54.361Z,8.37
2023-02-09T09:46:27.178Z,9.30
2023-02-09T09:48:57.995Z,9.07
2023-02-09T09:51:53.199Z,7.93
2023-02-09T09:54:25.777Z,7.70
2023-02-09T09:56:53.856Z,10.37
2023-02-09T09:59:25.621Z,8.97
2023-02-09T10:01:55.453Z,7.90
2023-02-09T10:04:22.729Z,11.83
2023-02-09T10:07:01.547Z,10.27
2023-02-09T10:09:28.496Z,8.80
2023-02-09T10:12:04.025Z,7.57
2023-02-09T10:14:31.375Z,10.40
2023-02-09T10:16:58.400Z,11.23
2023-02-09T10:19:29.606Z,10.33
2023-02-09T10:21:57.061Z,10.73
2023-02-09T10:24:26.770Z,12.17
2023-02-09T10:27:23.306Z,8.73
2023-02-09T10:29:50.216Z,9.33
2023-02-09T10:32:22.035Z,12.03
2023-02-09T10:34:54.615Z,11.00
2023-02-09T10:37:37.879Z,11.27
2023-02-09T10:40:18.647Z,10.47
2023-02-09T10:43:00.680Z,9.33
2023-02-09T10:45:37.381Z,8.77
2023-02-09T10:48:13.365Z,11.37
2023-02-09T10:51:13.124Z,10.87
2023-02-09T10:54:01.905Z,10.13
2023-02-09T10:56:44.482Z,9.53
2023-02-09T10:59:17.939Z,10.33
2023-02-09T11:01:57.177Z,9.43
2023-02-09T11:04:27.016Z,10.53
2023-02-09T11:07:00.885Z,9.63
2023-02-09T11:09:31.895Z,11.10
2023-02-09T11:11:59.038Z,9.77
2023-02-09T11:14:26.222Z,10.40
2023-02-09T11:17:10.928Z,9.47
2023-02-09T11:20:10.459Z,13.13
2023-02-09T11:23:35.581Z,15.23
2023-02-09T11:26:25.888Z,8.63
2023-02-09T11:29:20.842Z,9.63
2023-02-09T11:32:19.867Z,11.17
2023-02-09T11:35:09.452Z,11.03
2023-02-09T11:38:15.029Z,11.13
2023-02-09T11:40:46.362Z,8.90
2023-02-09T11:43:25.738Z,10.00
2023-02-09T11:45:56.861Z,9.50
2023-02-09T11:48:33.269Z,11.10
2023-02-09T11:51:02.913Z,10.57
2023-02-09T11:53:34.222Z,10.07
2023-02-09T11:56:05.118Z,13.17
2023-02-09T11:58:50.963Z,10.17
2023-02-09T12:01:26.584Z,11.40
2023-02-09T12:04:05.836Z,10.50
2023-02-09T12:06:39.517Z,10.17
2023-02-09T12:09:29.459Z,10.27
2023-02-09T12:12:00.039Z,11.03
2023-02-09T12:15:04.509Z,10.80
2023-02-09T12:17:47.552Z,10.47
2023-02-09T12:20:22.412Z,10.37
2023-02-09T12:22:55.934Z,11.57
2023-02-09T12:25:50.217Z,11.70
2023-02-09T12:28:40.805Z,9.40
2023-02-09T12:31:12.474Z,12.47
2023-02-09T12:34:11.920Z,13.67
2023-02-09T12:37:08.436Z,11.00
2023-02-09T12:39:35.491Z,10.80
2023-02-09T12:42:02.430Z,12.07
2023-02-09T12:44:30.026Z,13.17
2023-02-09T12:46:58.344Z,10.87
2023-02-09T12:49:28.004Z,11.67
2023-02-09T12:52:13.690Z,12.83
2023-02-09T12:57:51.482Z,12.07
2023-02-09T13:00:29.757Z,11.10
2023-02-09T13:03:15.030Z,9.83
2023-02-09T13:08:36.988Z,13.53
2023-02-09T13:14:15.099Z,12.00
2023-02-09T13:16:50.848Z,11.70
2023-02-09T13:22:33.013Z,11.27
2023-02-09T13:25:26.654Z,14.23
2023-02-09T13:27:55.000Z,9.33
2023-02-09T13:30:32.260Z,10.43
2023-02-09T13:33:09.023Z,12.43
2023-02-09T14:01:48.067Z,12.10
2023-02-09T14:07:34.889Z,12.53
2023-02-09T14:10:13.107Z,10.43
2023-02-09T14:22:43.343Z,12.97
2023-02-09T14:29:22.843Z,14.00
2023-02-09T14:35:25.271Z,13.13
2023-02-09T14:37:55.458Z,13.07
2023-02-09T14:46:15.974Z,18.50
2023-02-09T14:49:14.814Z,13.20
2023-02-09T14:51:45.036Z,12.50
2023-02-09T14:54:21.181Z,14.50
2023-02-09T15:03:33.516Z,11.80
2023-02-09T15:06:16.012Z,14.90
2023-02-09T15:09:18.842Z,13.20
2023-02-09T15:12:48.825Z,11.47
2023-02-09T15:15:18.391Z,13.33
2023-02-09T15:17:45.873Z,14.73
2023-02-09T15:20:26.302Z,11.83
2023-02-09T15:22:54.877Z,14.00
2023-02-09T15:25:23.524Z,19.03
2023-02-09T15:27:58.858Z,14.03
2023-02-09T15:30:36.033Z,15.63
2023-02-09T15:33:03.865Z,20.73
2023-02-09T15:35:30.875Z,13.73
2023-02-09T15:38:00.532Z,13.97
2023-02-09T15:41:01.769Z,15.43
2023-02-09T15:43:48.059Z,17.00
2023-02-09T15:46:34.258Z,14.60
2023-02-09T15:49:01.714Z,16.07
2023-02-09T15:51:35.007Z,13.87
2023-02-09T15:54:05.778Z,13.60
2023-02-09T15:56:34.611Z,18.47
2023-02-09T15:59:03.999Z,16.10
2023-02-09T16:01:34.121Z,15.07
2023-02-09T16:04:13.847Z,13.97
2023-02-09T16:06:53.746Z,14.47
2023-02-09T16:09:28.698Z,14.17
2023-02-09T16:11:55.750Z,15.00
2023-02-09T16:14:25.021Z,11.93
2023-02-09T16:16:52.656Z,13.03
2023-02-09T16:19:20.657Z,14.43
2023-02-09T16:21:53.356Z,17.57
2023-02-09T16:24:35.052Z,17.00
2023-02-09T16:27:07.700Z,15.93
2023-02-09T16:29:34.588Z,15.93
2023-02-09T16:32:01.777Z,14.37
2023-02-09T16:34:28.910Z,18.67
2023-02-09T16:36:55.774Z,12.73
2023-02-09T16:39:22.889Z,17.37
2023-02-09T16:41:54.435Z,16.07
2023-02-09T16:44:33.659Z,20.77
2023-02-09T16:47:01.711Z,16.93
2023-02-09T16:49:37.135Z,16.57
2023-02-09T16:52:15.233Z,13.87
2023-02-09T16:54:47.406Z,20.23
2023-02-09T16:57:17.839Z,16.83
2023-02-09T16:59:44.922Z,14.73
2023-02-09T17:02:38.340Z,20.57
2023-02-09T17:05:30.308Z,19.03
2023-02-09T17:08:04.028Z,15.83
2023-02-09T17:10:34.139Z,17.53
2023-02-09T17:13:02.551Z,16.07
2023-02-09T17:15:33.279Z,15.33
2023-02-09T17:18:05.389Z,17.00
2023-02-09T17:20:41.194Z,16.30
2023-02-09T17:23:13.981Z,18.07
2023-02-09T17:25:40.943Z,16.77
2023-02-09T17:28:08.368Z,17.77
2023-02-09T17:30:35.877Z,19.23
2023-02-09T17:33:05.950Z,16.00
2023-02-09T17:36:03.690Z,17.63
2023-02-09T17:38:26.415Z,15.23
2023-02-09T17:40:55.845Z,14.00
2023-02-09T17:43:27.069Z,16.97
2023-02-09T17:45:55.810Z,17.03
2023-02-09T17:48:23.943Z,15.37
2023-02-09T17:50:53.029Z,15.47
2023-02-09T17:53:23.404Z,15.27
2023-02-09T17:55:50.918Z,13.23
2023-02-09T17:58:18.325Z,14.23
2023-02-09T18:00:46.146Z,14.87
2023-02-09T18:03:18.731Z,10.70
2023-02-09T18:05:58.861Z,11.13
2023-02-09T18:08:27.462Z,8.77
2023-02-09T18:10:58.860Z,8.83
2023-02-09T18:13:27.174Z,7.50
2023-02-09T18:15:54.838Z,8.07
2023-02-09T18:18:24.190Z,6.00
2023-02-09T18:20:51.460Z,6.93
2023-02-09T18:23:18.571Z,7.37
2023-02-09T18:25:47.715Z,6.40
2023-02-09T18:28:15.232Z,6.57
2023-02-09T18:30:43.293Z,6.50
2023-02-09T18:33:10.704Z,6.23
2023-02-09T18:35:40.954Z,5.47
2023-02-09T18:38:10.582Z,5.13
2023-02-09T18:40:38.990Z,5.87
2023-02-09T18:43:06.949Z,5.13
2023-02-09T18:45:34.748Z,5.63
2023-02-09T18:48:01.818Z,5.43
2023-02-09T18:50:32.010Z,6.13
2023-02-09T18:53:01.803Z,5.73
2023-02-09T18:55:32.076Z,6.00
2023-02-09T18:58:01.802Z,6.77
2023-02-09T19:00:29.850Z,6.53
2023-02-09T19:02:57.988Z,6.07
2023-02-09T19:05:27.994Z,8.53
2023-02-09T19:07:56.051Z,6.37
2023-02-09T19:10:23.800Z,8.30
2023-02-09T19:12:51.598Z,6.83
2023-02-09T19:15:19.375Z,7.23
2023-02-09T19:17:46.655Z,6.63
2023-02-09T19:20:19.745Z,7.73
2023-02-09T19:22:51.666Z,6.47
2023-02-09T19:25:20.074Z,9.03
2023-02-09T19:27:47.158Z,7.10
2023-02-09T19:30:16.936Z,8.83
2023-02-09T19:32:44.638Z,7.87
2023-02-09T19:35:11.479Z,9.27
2023-02-09T19:37:40.103Z,7.03
2023-02-09T19:40:21.316Z,7.03
2023-02-09T19:42:48.928Z,7.60
2023-02-09T19:45:16.399Z,6.40
2023-02-09T19:47:43.468Z,6.43
2023-02-09T19:50:11.052Z,4.17
2023-02-09T19:52:39.002Z,5.63
2023-02-09T19:55:06.394Z,7.20
2023-02-09T19:57:33.431Z,8.50
2023-02-09T20:00:00.451Z,8.53
2023-02-09T20:02:27.482Z,9.23
2023-02-09T20:04:54.513Z,6.03
2023-02-09T20:07:21.874Z,5.80
2023-02-09T20:09:50.700Z,6.03
2023-02-09T20:12:19.314Z,5.17
2023-02-09T20:14:46.376Z,5.63
2023-02-09T20:17:13.334Z,9.43
2023-02-09T20:19:40.382Z,5.03
2023-02-09T20:22:07.418Z,7.50
2023-02-09T20:24:34.402Z,9.23
2023-02-09T20:27:01.596Z,6.63
2023-02-09T20:29:28.515Z,3.23
2023-02-09T20:31:55.847Z,3.93
2023-02-09T20:34:22.939Z,3.80
2023-02-09T20:36:50.879Z,6.67
2023-02-09T20:39:17.979Z,6.87
2023-02-09T20:42:08.258Z,5.10
2023-02-09T20:44:54.170Z,8.37
2023-02-09T20:47:21.297Z,4.90
2023-02-09T20:49:48.322Z,3.73
2023-02-09T20:52:15.211Z,5.40
2023-02-09T20:54:42.390Z,7.20
2023-02-09T20:57:09.464Z,8.17
2023-02-09T20:59:36.341Z,6.20
2023-02-09T21:02:03.440Z,6.13
2023-02-09T21:04:30.366Z,6.63
2023-02-09T21:06:58.096Z,8.20
2023-02-09T21:09:29.547Z,5.47
2023-02-09T21:11:57.122Z,4.40
2023-02-09T21:14:41.065Z,7.97
2023-02-09T21:17:09.915Z,4.90
2023-02-09T21:19:37.109Z,7.97
2023-02-09T21:22:04.162Z,6.53
2023-02-09T21:24:31.335Z,6.10
2023-02-09T21:27:00.685Z,8.47
2023-02-09T21:29:29.259Z,10.50
2023-02-09T21:31:56.772Z,6.80
2023-02-09T21:34:23.684Z,7.00
2023-02-09T21:36:50.771Z,8.70
2023-02-09T21:39:17.836Z,7.97
2023-02-09T21:42:03.734Z,9.13
2023-02-09T21:44:30.772Z,6.00
2023-02-09T21:46:57.647Z,14.40
2023-02-09T21:49:24.708Z,6.93
2023-02-09T21:51:51.810Z,4.83
2023-02-09T21:54:19.067Z,6.20
2023-02-09T21:56:46.167Z,5.03
2023-02-09T21:59:13.345Z,5.10
2023-02-09T22:01:42.527Z,7.87
2023-02-09T22:04:09.851Z,7.10
2023-02-09T22:06:36.976Z,5.63
2023-02-09T22:09:06.312Z,9.17
2023-02-09T22:11:33.871Z,5.37
2023-02-09T22:14:00.968Z,5.60
2023-02-09T22:16:28.038Z,7.10
2023-02-09T22:18:55.310Z,5.67
2023-02-09T22:21:22.483Z,8.17
2023-02-09T22:23:49.387Z,6.83
2023-02-09T22:26:16.509Z,6.43
2023-02-09T22:28:43.452Z,4.20
2023-02-09T22:31:17.407Z,6.23
2023-02-09T22:33:44.860Z,5.73
2023-02-09T22:36:15.012Z,8.87
2023-02-09T22:38:42.389Z,6.73
2023-02-09T22:41:21.602Z,5.90
2023-02-09T22:44:00.514Z,8.13
2023-02-09T22:46:30.287Z,6.17
2023-02-09T22:48:59.832Z,4.23
2023-02-09T22:51:28.622Z,5.97
2023-02-09T22:53:56.972Z,7.47
2023-02-09T22:56:24.592Z,6.67
2023-02-09T22:58:55.618Z,6.67
2023-02-09T23:01:23.107Z,9.30
2023-02-09T23:03:50.339Z,6.23
2023-02-09T23:06:20.899Z,5.57
2023-02-09T23:08:48.003Z,6.03
2023-02-09T23:11:17.013Z,6.67
2023-02-09T23:13:44.634Z,4.67
2023-02-09T23:16:20.467Z,8.27
2023-02-09T23:18:50.239Z,6.40
2023-02-09T23:21:18.566Z,7.17
2023-02-09T23:23:46.059Z,9.60
2023-02-09T23:26:14.213Z,5.27
2023-02-09T23:28:41.165Z,7.83
2023-02-09T23:31:11.237Z,10.33
2023-02-09T23:33:38.415Z,6.63
2023-02-09T23:36:06.719Z,6.83
2023-02-09T23:38:33.827Z,7.37
2023-02-09T23:41:12.445Z,8.07
2023-02-09T23:43:39.618Z,7.10
2023-02-09T23:46:10.734Z,5.17
2023-02-09T23:48:38.693Z,13.43
2023-02-09T23:51:11.692Z,8.00
2023-02-09T23:53:38.607Z,7.40
2023-02-09T23:56:05.972Z,6.73
2023-02-09T23:58:36.420Z,6.73
